createdAt,value
2023-04-27T00:01:41.414Z,4.13
2023-04-27T00:04:08.456Z,3.60
2023-04-27T00:06:35.452Z,4.28
2023-04-27T00:09:02.399Z,3.60
2023-04-27T00:11:29.507Z,4.20
2023-04-27T00:13:56.814Z,5.00
2023-04-27T00:16:23.723Z,4.25
2023-04-27T00:18:50.928Z,4.18
2023-04-27T00:21:17.852Z,4.32
2023-04-27T00:23:44.680Z,4.50
2023-04-27T00:26:11.683Z,3.70
2023-04-27T00:28:39.933Z,4.18
2023-04-27T00:31:07.040Z,4.60
2023-04-27T00:33:33.875Z,4.03
2023-04-27T00:36:01.686Z,4.38
2023-04-27T00:38:29.455Z,5.63
2023-04-27T00:41:04.330Z,4.03
2023-04-27T00:43:31.494Z,4.10
2023-04-27T00:45:59.739Z,4.30
2023-04-27T00:48:26.888Z,3.83
2023-04-27T00:50:54.311Z,3.78
2023-04-27T00:53:21.634Z,4.13
2023-04-27T00:55:50.145Z,4.07
2023-04-27T00:58:16.977Z,4.15
2023-04-27T01:00:44.140Z,4.07
2023-04-27T01:03:11.495Z,4.13
2023-04-27T01:05:39.190Z,3.42
2023-04-27T01:08:08.003Z,3.70
2023-04-27T01:10:34.938Z,3.97
2023-04-27T01:13:02.448Z,3.83
2023-04-27T01:15:31.176Z,4.35
2023-04-27T01:18:01.950Z,4.50
2023-04-27T01:20:30.379Z,3.90
2023-04-27T01:22:58.518Z,4.00
2023-04-27T01:25:25.873Z,4.38
2023-04-27T01:27:53.733Z,4.40
2023-04-27T01:30:22.519Z,4.38
2023-04-27T01:32:50.190Z,4.47
2023-04-27T01:35:19.468Z,4.60
2023-04-27T01:37:46.374Z,4.05
2023-04-27T01:40:13.646Z,4.50
2023-04-27T01:42:40.832Z,4.47
2023-04-27T01:45:09.463Z,4.47
2023-04-27T01:47:36.399Z,5.43
2023-04-27T01:50:03.962Z,4.75
2023-04-27T01:52:31.271Z,4.20
2023-04-27T01:54:59.308Z,4.68
2023-04-27T01:57:27.010Z,4.68
2023-04-27T01:59:55.481Z,5.13
2023-04-27T02:02:22.479Z,4.05
2023-04-27T02:04:49.516Z,4.10
2023-04-27T02:07:16.479Z,5.05
2023-04-27T02:09:43.407Z,4.38
2023-04-27T02:12:13.433Z,4.07
2023-04-27T02:14:40.288Z,4.38
2023-04-27T02:17:07.251Z,4.35
2023-04-27T02:19:34.172Z,4.70
2023-04-27T02:22:01.558Z,4.43
2023-04-27T02:24:28.550Z,4.82
2023-04-27T02:26:55.484Z,4.43
2023-04-27T02:29:22.397Z,4.68
2023-04-27T02:31:49.851Z,4.60
2023-04-27T02:34:16.742Z,4.18
2023-04-27T02:36:43.581Z,5.07
2023-04-27T02:39:10.514Z,4.53
2023-04-27T02:41:38.532Z,5.07
2023-04-27T02:44:05.509Z,4.82
2023-04-27T02:46:32.541Z,5.10
2023-04-27T02:48:59.374Z,4.43
2023-04-27T02:51:26.978Z,4.53
2023-04-27T02:53:54.397Z,4.60
2023-04-27T02:56:21.292Z,4.43
2023-04-27T02:58:48.178Z,5.07
2023-04-27T03:01:17.317Z,3.85
2023-04-27T03:03:48.122Z,4.50
2023-04-27T03:06:15.587Z,4.35
2023-04-27T03:08:42.733Z,4.60
2023-04-27T03:11:09.726Z,4.45
2023-04-27T03:13:42.010Z,4.35
2023-04-27T03:16:12.076Z,4.22
2023-04-27T03:21:08.125Z,4.25
2023-04-27T03:23:35.447Z,4.55
2023-04-27T03:26:08.725Z,4.20
2023-04-27T03:28:35.878Z,3.95
2023-04-27T03:31:20.674Z,4.47
2023-04-27T03:33:47.578Z,4.35
2023-04-27T03:36:15.952Z,4.40
2023-04-27T03:38:42.920Z,4.05
2023-04-27T03:41:09.906Z,4.35
2023-04-27T03:43:37.019Z,4.53
2023-04-27T03:46:03.931Z,4.20
2023-04-27T03:48:30.992Z,4.93
2023-04-27T03:50:57.935Z,5.03
2023-04-27T03:53:25.080Z,4.60
2023-04-27T03:55:52.229Z,4.35
2023-04-27T03:58:19.200Z,4.22
2023-04-27T04:01:06.477Z,4.88
2023-04-27T04:03:33.696Z,4.18
2023-04-27T04:06:01.326Z,4.60
2023-04-27T04:08:28.673Z,4.75
2023-04-27T04:10:56.936Z,4.70
2023-04-27T04:13:25.267Z,4.68
2023-04-27T04:16:04.568Z,4.43
2023-04-27T04:18:31.702Z,4.17
2023-04-27T04:20:58.886Z,5.00
2023-04-27T04:23:26.875Z,4.60
2023-04-27T04:25:56.378Z,4.50
2023-04-27T04:28:58.065Z,5.20
2023-04-27T04:31:25.080Z,4.55
2023-04-27T04:33:52.045Z,4.13
2023-04-27T04:36:19.050Z,4.28
2023-04-27T04:38:46.092Z,4.68
2023-04-27T04:41:12.988Z,4.32
2023-04-27T04:43:40.934Z,4.50
2023-04-27T04:46:07.921Z,4.15
2023-04-27T04:48:34.976Z,4.78
2023-04-27T04:51:01.826Z,4.25
2023-04-27T04:53:29.572Z,4.30
2023-04-27T04:55:56.507Z,4.10
2023-04-27T04:58:23.427Z,4.35
2023-04-27T05:00:50.622Z,4.22
2023-04-27T05:03:17.773Z,4.30
2023-04-27T05:05:44.821Z,5.13
2023-04-27T05:08:11.647Z,4.43
2023-04-27T05:10:38.480Z,4.43
2023-04-27T05:13:07.056Z,3.88
2023-04-27T05:15:34.121Z,4.50
2023-04-27T05:18:01.039Z,5.22
2023-04-27T05:20:27.939Z,4.70
2023-04-27T05:22:54.769Z,4.88
2023-04-27T05:25:21.605Z,4.10
2023-04-27T05:27:48.432Z,4.63
2023-04-27T05:30:15.576Z,4.60
2023-04-27T05:32:42.427Z,4.90
2023-04-27T05:35:09.922Z,5.45
2023-04-27T05:37:36.941Z,5.18
2023-04-27T05:40:05.994Z,5.43
2023-04-27T05:42:33.146Z,4.80
2023-04-27T05:45:00.043Z,5.35
2023-04-27T05:47:26.942Z,4.45
2023-04-27T05:49:55.206Z,5.65
2023-04-27T05:52:22.340Z,5.00
2023-04-27T05:54:50.495Z,4.93
2023-04-27T05:57:17.502Z,5.53
2023-04-27T05:59:44.420Z,5.38
2023-04-27T06:02:11.425Z,5.93
2023-04-27T06:04:38.534Z,5.60
2023-04-27T06:07:16.346Z,5.15
2023-04-27T06:09:43.333Z,6.45
2023-04-27T06:12:10.508Z,6.65
2023-04-27T06:14:38.147Z,6.07
2023-04-27T06:17:05.053Z,6.13
2023-04-27T06:19:31.992Z,6.60
2023-04-27T06:21:58.865Z,6.43
2023-04-27T06:24:25.742Z,5.97
2023-04-27T06:26:52.651Z,6.25
2023-04-27T06:29:19.539Z,6.30
2023-04-27T06:31:47.312Z,6.65
2023-04-27T06:34:14.316Z,6.07
2023-04-27T06:36:41.300Z,6.80
2023-04-27T06:39:08.177Z,6.93
2023-04-27T06:41:35.171Z,7.07
2023-04-27T06:44:02.451Z,7.05
2023-04-27T06:46:29.350Z,6.72
2023-04-27T06:48:56.360Z,6.97
2023-04-27T06:51:23.185Z,6.47
2023-04-27T06:53:50.044Z,7.82
2023-04-27T06:56:17.219Z,6.10
2023-04-27T06:58:44.121Z,7.07
2023-04-27T07:01:11.098Z,7.00
2023-04-27T07:03:38.300Z,7.72
2023-04-27T07:06:05.852Z,7.32
2023-04-27T07:08:33.939Z,7.03
2023-04-27T07:11:00.971Z,7.22
2023-04-27T07:13:27.899Z,7.60
2023-04-27T07:15:57.957Z,8.90
2023-04-27T07:18:26.019Z,7.50
2023-04-27T07:20:52.880Z,7.53
2023-04-27T07:23:19.697Z,6.97
2023-04-27T07:25:46.687Z,7.60
2023-04-27T07:28:13.506Z,7.05
2023-04-27T07:30:41.675Z,6.93
2023-04-27T07:33:09.943Z,8.07
2023-04-27T07:35:37.228Z,7.88
2023-04-27T07:38:04.078Z,6.32
2023-04-27T07:40:32.813Z,6.82
2023-04-27T07:42:59.929Z,5.38
2023-04-27T07:45:33.617Z,4.72
2023-04-27T07:48:02.378Z,5.10
2023-04-27T07:50:32.064Z,4.65
2023-04-27T07:52:59.499Z,5.03
2023-04-27T07:55:26.799Z,5.60
2023-04-27T07:57:54.481Z,5.13
2023-04-27T08:00:22.365Z,5.35
2023-04-27T08:02:50.721Z,4.90
2023-04-27T08:05:18.352Z,4.40
2023-04-27T08:07:45.968Z,4.15
2023-04-27T08:10:13.523Z,4.43
2023-04-27T08:12:40.649Z,4.50
2023-04-27T08:15:08.373Z,4.95
2023-04-27T08:17:36.453Z,4.10
2023-04-27T08:20:04.028Z,5.82
2023-04-27T08:22:31.526Z,4.70
2023-04-27T08:24:58.409Z,4.93
2023-04-27T08:27:25.333Z,5.22
2023-04-27T08:29:52.553Z,4.82
2023-04-27T08:32:19.416Z,4.55
2023-04-27T08:34:46.554Z,4.68
2023-04-27T08:37:13.824Z,4.25
2023-04-27T08:39:40.720Z,4.65
2023-04-27T08:42:12.236Z,4.68
2023-04-27T08:44:40.341Z,4.80
2023-04-27T08:47:08.867Z,4.70
2023-04-27T08:49:38.946Z,4.63
2023-04-27T08:52:13.805Z,5.78
2023-04-27T08:54:41.274Z,5.18
2023-04-27T08:57:15.828Z,5.63
2023-04-27T08:59:46.073Z,4.93
2023-04-27T09:02:22.071Z,4.53
2023-04-27T09:04:49.308Z,4.65
2023-04-27T09:07:18.192Z,4.47
2023-04-27T09:09:46.145Z,3.40
2023-04-27T09:12:20.965Z,3.38
2023-04-27T09:15:05.298Z,4.43
2023-04-27T09:17:33.708Z,3.88
2023-04-27T09:20:13.432Z,4.20
2023-04-27T09:22:47.762Z,3.33
2023-04-27T09:25:29.410Z,3.40
2023-04-27T09:27:58.343Z,3.35
2023-04-27T09:30:29.169Z,2.95
2023-04-27T09:33:01.767Z,3.78
2023-04-27T09:35:33.527Z,3.40
2023-04-27T09:38:01.585Z,3.17
2023-04-27T09:40:31.235Z,3.25
2023-04-27T09:43:04.034Z,3.15
2023-04-27T09:45:33.289Z,3.00
2023-04-27T09:48:01.864Z,3.23
2023-04-27T09:50:28.858Z,2.83
2023-04-27T09:52:56.408Z,2.95
2023-04-27T09:55:28.461Z,3.08
2023-04-27T09:58:33.200Z,3.85
2023-04-27T10:01:26.243Z,3.15
2023-04-27T10:04:30.239Z,3.33
2023-04-27T10:07:04.847Z,4.03
2023-04-27T10:09:37.076Z,3.28
2023-04-27T10:12:20.198Z,3.67
2023-04-27T10:14:59.090Z,3.22
2023-04-27T10:17:27.005Z,3.70
2023-04-27T10:19:59.374Z,3.70
2023-04-27T10:22:47.460Z,3.78
2023-04-27T10:25:24.046Z,3.65
2023-04-27T10:27:58.272Z,3.60
2023-04-27T10:30:31.589Z,4.63
2023-04-27T10:33:03.939Z,3.65
2023-04-27T10:35:33.664Z,3.35
2023-04-27T10:38:18.569Z,3.63
2023-04-27T10:40:54.442Z,3.10
2023-04-27T10:43:29.474Z,3.65
2023-04-27T10:46:11.668Z,3.17
2023-04-27T10:48:43.489Z,3.72
2023-04-27T10:51:15.415Z,3.22
2023-04-27T10:53:42.423Z,3.58
2023-04-27T10:56:09.701Z,4.07
2023-04-27T10:58:48.354Z,3.30
2023-04-27T11:01:27.029Z,2.67
2023-04-27T11:03:57.986Z,3.42
2023-04-27T11:06:25.178Z,3.33
2023-04-27T11:08:52.211Z,3.88
2023-04-27T11:11:19.648Z,4.13
2023-04-27T11:13:49.675Z,3.85
2023-04-27T11:16:17.146Z,3.47
2023-04-27T11:18:44.013Z,4.00
2023-04-27T11:21:10.900Z,3.10
2023-04-27T11:23:39.085Z,3.45
2023-04-27T11:26:25.191Z,3.15
2023-04-27T11:28:58.819Z,3.72
2023-04-27T11:31:38.896Z,3.88
2023-04-27T11:34:07.835Z,4.07
2023-04-27T11:36:35.059Z,3.42
2023-04-27T11:39:02.264Z,3.50
2023-04-27T11:41:36.780Z,3.72
2023-04-27T11:44:11.364Z,3.90
2023-04-27T11:46:38.798Z,3.28
2023-04-27T11:49:08.873Z,3.28
2023-04-27T11:51:38.692Z,3.17
2023-04-27T11:54:07.305Z,3.38
2023-04-27T11:56:36.302Z,3.97
2023-04-27T11:59:03.619Z,2.97
2023-04-27T12:01:37.965Z,3.67
2023-04-27T12:04:05.571Z,4.65
2023-04-27T12:06:33.756Z,3.00
2023-04-27T12:09:01.285Z,3.42
2023-04-27T12:11:28.306Z,3.75
2023-04-27T12:13:56.184Z,4.30
2023-04-27T12:16:23.310Z,3.50
2023-04-27T12:18:50.533Z,3.40
2023-04-27T12:21:18.038Z,3.70
2023-04-27T12:23:45.058Z,3.20
2023-04-27T12:26:14.988Z,3.75
2023-04-27T12:31:13.305Z,3.42
2023-04-27T12:33:40.236Z,2.88
2023-04-27T12:36:07.432Z,3.10
2023-04-27T12:38:34.266Z,3.22
2023-04-27T12:41:02.527Z,3.05
2023-04-27T12:43:29.395Z,2.97
2023-04-27T12:45:56.308Z,2.55
2023-04-27T12:48:23.792Z,3.40
2023-04-27T12:50:50.939Z,2.97
2023-04-27T12:53:17.829Z,2.55
2023-04-27T12:55:44.888Z,3.58
2023-04-27T12:58:11.910Z,3.00
2023-04-27T13:00:38.812Z,3.20
2023-04-27T13:03:06.936Z,2.75
2023-04-27T13:05:33.952Z,2.90
2023-04-27T13:08:00.798Z,2.92
2023-04-27T13:10:29.621Z,3.13
2023-04-27T13:12:57.035Z,3.30
2023-04-27T13:15:23.917Z,3.25
2023-04-27T13:17:53.223Z,2.90
2023-04-27T13:20:20.676Z,2.53
2023-04-27T13:22:48.201Z,2.92
2023-04-27T13:25:16.620Z,3.42
2023-04-27T13:27:43.538Z,2.72
2023-04-27T13:30:10.684Z,3.40
2023-04-27T13:32:37.667Z,2.60
2023-04-27T13:35:05.498Z,3.65
2023-04-27T13:37:32.495Z,3.28
2023-04-27T13:39:59.321Z,3.00
2023-04-27T13:42:29.390Z,3.30
2023-04-27T13:44:57.094Z,2.97
2023-04-27T13:47:23.959Z,2.75
2023-04-27T13:49:50.892Z,3.25
2023-04-27T13:52:17.772Z,3.10
2023-04-27T13:54:44.582Z,2.75
2023-04-27T13:57:11.489Z,3.15
2023-04-27T13:59:38.441Z,3.00
2023-04-27T14:02:05.454Z,2.55
2023-04-27T14:04:32.571Z,3.30
2023-04-27T14:06:59.676Z,2.90
2023-04-27T14:09:27.318Z,3.22
2023-04-27T14:11:57.216Z,2.80
2023-04-27T14:14:24.742Z,3.03
2023-04-27T14:16:52.088Z,3.50
2023-04-27T14:19:20.678Z,2.83
2023-04-27T14:21:49.566Z,3.53
2023-04-27T14:24:16.528Z,3.17
2023-04-27T14:26:44.274Z,2.88
2023-04-27T14:29:11.900Z,2.80
2023-04-27T14:31:39.783Z,3.50
2023-04-27T14:34:07.551Z,3.30
2023-04-27T14:36:34.749Z,2.38
2023-04-27T14:39:02.018Z,3.33
2023-04-27T14:41:28.934Z,2.45
2023-04-27T14:43:56.034Z,3.03
2023-04-27T14:46:23.331Z,2.95
2023-04-27T14:48:51.480Z,2.67
2023-04-27T14:51:18.797Z,3.28
2023-04-27T14:53:46.138Z,2.80
2023-04-27T14:56:13.361Z,3.20
2023-04-27T14:58:41.464Z,2.75
2023-04-27T15:01:08.857Z,2.55
2023-04-27T15:03:36.144Z,2.83
2023-04-27T15:06:03.523Z,2.70
2023-04-27T15:08:32.699Z,2.92
2023-04-27T15:11:01.127Z,3.03
2023-04-27T15:13:28.735Z,3.38
2023-04-27T15:15:59.264Z,2.30
2023-04-27T15:18:26.314Z,3.53
2023-04-27T15:20:53.558Z,3.10
2023-04-27T15:23:21.686Z,3.28
2023-04-27T15:25:49.893Z,3.70
2023-04-27T15:28:18.173Z,2.63
2023-04-27T15:30:45.738Z,2.70
2023-04-27T15:33:14.018Z,3.53
2023-04-27T15:35:41.462Z,3.22
2023-04-27T15:38:11.166Z,3.30
2023-04-27T15:40:38.811Z,3.10
2023-04-27T15:43:06.065Z,2.88
2023-04-27T15:45:33.724Z,2.53
2023-04-27T15:48:01.492Z,2.60
2023-04-27T15:50:28.841Z,3.50
2023-04-27T15:52:56.236Z,2.50
2023-04-27T15:55:23.573Z,3.05
2023-04-27T15:57:50.718Z,2.92
2023-04-27T16:00:18.979Z,3.17
2023-04-27T16:02:46.974Z,2.88
2023-04-27T16:05:14.667Z,3.55
2023-04-27T16:07:43.361Z,3.00
2023-04-27T16:10:11.545Z,3.20
2023-04-27T16:12:38.832Z,2.97
2023-04-27T16:15:08.465Z,3.35
2023-04-27T16:17:37.323Z,3.08
2023-04-27T16:20:06.874Z,2.92
2023-04-27T16:22:34.720Z,3.00
2023-04-27T16:25:02.060Z,3.55
2023-04-27T16:27:28.909Z,3.08
2023-04-27T16:29:56.582Z,2.60
2023-04-27T16:32:24.023Z,2.83
2023-04-27T16:34:51.028Z,3.17
2023-04-27T16:37:17.911Z,3.13
2023-04-27T16:39:45.268Z,3.42
2023-04-27T16:42:16.306Z,3.40
2023-04-27T16:44:43.109Z,3.92
2023-04-27T16:47:10.488Z,3.05
2023-04-27T16:49:37.835Z,2.90
2023-04-27T16:52:05.204Z,2.38
2023-04-27T16:54:32.594Z,3.35
2023-04-27T16:56:59.557Z,2.13
2023-04-27T16:59:26.645Z,2.95
2023-04-27T17:01:53.614Z,3.15
2023-04-27T17:04:20.814Z,2.85
2023-04-27T17:06:48.599Z,2.33
2023-04-27T17:09:15.683Z,2.67
2023-04-27T17:11:42.946Z,2.63
2023-04-27T17:14:09.965Z,3.13
2023-04-27T17:16:36.972Z,2.65
2023-04-27T17:19:03.944Z,3.20
2023-04-27T17:21:31.706Z,2.63
2023-04-27T17:23:58.985Z,2.65
2023-04-27T17:26:26.143Z,4.18
2023-04-27T17:28:55.040Z,3.00
2023-04-27T17:31:21.913Z,2.83
2023-04-27T17:33:49.363Z,2.78
2023-04-27T17:36:16.357Z,2.45
2023-04-27T17:38:43.706Z,2.85
2023-04-27T17:41:10.868Z,3.05
2023-04-27T17:43:38.012Z,2.97
2023-04-27T17:46:09.953Z,3.63
2023-04-27T17:48:37.902Z,2.63
2023-04-27T17:51:04.851Z,3.65
2023-04-27T17:53:32.171Z,2.35
2023-04-27T17:55:59.491Z,3.05
2023-04-27T17:58:28.014Z,2.80
2023-04-27T18:00:55.162Z,2.47
2023-04-27T18:03:22.639Z,2.63
2023-04-27T18:05:49.710Z,2.70
2023-04-27T18:08:16.955Z,2.75
2023-04-27T18:10:44.038Z,3.00
2023-04-27T18:13:11.245Z,2.65
2023-04-27T18:15:38.449Z,2.20
2023-04-27T18:18:06.489Z,2.88
2023-04-27T18:20:33.783Z,2.55
2023-04-27T18:23:01.130Z,2.45
2023-04-27T18:25:28.184Z,2.97
2023-04-27T18:27:56.097Z,2.28
2023-04-27T18:30:23.588Z,2.45
2023-04-27T18:32:50.450Z,2.50
2023-04-27T18:35:17.514Z,2.67
2023-04-27T18:37:48.427Z,3.42
2023-04-27T18:40:22.213Z,3.05
2023-04-27T18:42:50.140Z,3.03
2023-04-27T18:45:17.397Z,3.10
2023-04-27T18:47:44.306Z,3.15
2023-04-27T18:50:13.188Z,3.20
2023-04-27T18:52:40.029Z,2.70
2023-04-27T18:55:09.053Z,2.58
2023-04-27T18:57:36.676Z,2.88
2023-04-27T19:00:05.959Z,2.92
2023-04-27T19:02:36.398Z,3.13
2023-04-27T19:05:13.080Z,2.50
2023-04-27T19:07:40.875Z,3.33
2023-04-27T19:10:08.562Z,2.45
2023-04-27T19:12:35.982Z,2.83
2023-04-27T19:15:03.946Z,3.03
2023-04-27T19:17:31.515Z,3.35
2023-04-27T19:19:58.687Z,3.13
2023-04-27T19:22:27.191Z,3.28
2023-04-27T19:24:54.272Z,3.80
2023-04-27T19:27:21.999Z,3.58
2023-04-27T19:29:54.425Z,4.00
2023-04-27T19:32:22.126Z,2.95
2023-04-27T19:34:49.396Z,2.53
2023-04-27T19:37:16.746Z,2.42
2023-04-27T19:39:44.084Z,3.80
2023-04-27T19:42:11.335Z,4.53
2023-04-27T19:44:38.333Z,3.85
2023-04-27T19:47:06.758Z,4.18
2023-04-27T19:49:33.864Z,4.63
2023-04-27T19:52:00.972Z,3.78
2023-04-27T19:54:28.413Z,4.07
2023-04-27T19:56:56.125Z,3.55
2023-04-27T19:59:23.501Z,3.92
2023-04-27T20:01:50.348Z,4.70
2023-04-27T20:04:18.144Z,4.53
2023-04-27T20:06:46.332Z,4.68
2023-04-27T20:09:13.275Z,4.30
2023-04-27T20:11:40.377Z,3.67
2023-04-27T20:14:07.674Z,4.18
2023-04-27T20:16:34.552Z,3.92
2023-04-27T20:19:01.476Z,4.53
2023-04-27T20:21:29.363Z,4.35
2023-04-27T20:23:56.459Z,3.75
2023-04-27T20:26:24.445Z,5.00
2023-04-27T20:28:52.081Z,4.18
2023-04-27T20:31:19.149Z,7.90
2023-04-27T20:33:46.057Z,4.90
2023-04-27T20:36:17.765Z,4.38
2023-04-27T20:38:45.754Z,4.45
2023-04-27T20:41:13.058Z,4.65
2023-04-27T20:43:40.418Z,5.38
2023-04-27T20:46:08.243Z,10.48
2023-04-27T20:48:35.128Z,6.93
2023-04-27T20:51:02.240Z,4.38
2023-04-27T20:53:29.142Z,5.15
2023-04-27T20:55:56.927Z,4.80
2023-04-27T20:58:23.873Z,4.47
2023-04-27T21:00:51.484Z,4.80
2023-04-27T21:03:18.653Z,4.47
2023-04-27T21:05:47.329Z,4.15
2023-04-27T21:08:14.281Z,3.85
2023-04-27T21:10:41.708Z,3.30
2023-04-27T21:13:08.973Z,3.35
2023-04-27T21:15:36.052Z,3.22
2023-04-27T21:18:05.500Z,4.00
2023-04-27T21:23:01.689Z,4.15
2023-04-27T21:25:28.625Z,4.13
2023-04-27T21:27:55.456Z,4.22
2023-04-27T21:30:22.315Z,3.85
2023-04-27T21:32:49.680Z,3.08
2023-04-27T21:35:16.577Z,3.90
2023-04-27T21:37:43.439Z,3.83
2023-04-27T21:40:10.751Z,4.38
2023-04-27T21:42:38.111Z,3.70
2023-04-27T21:45:05.357Z,4.28
2023-04-27T21:47:32.665Z,3.42
2023-04-27T21:49:59.619Z,3.70
2023-04-27T21:52:26.506Z,4.22
2023-04-27T21:54:53.389Z,4.05
2023-04-27T21:57:20.331Z,4.03
2023-04-27T21:59:47.287Z,3.60
2023-04-27T22:02:14.211Z,3.97
2023-04-27T22:04:41.292Z,3.25
2023-04-27T22:07:08.676Z,3.25
2023-04-27T22:09:35.921Z,3.70
2023-04-27T22:12:03.017Z,4.28
2023-04-27T22:14:33.384Z,3.85
2023-04-27T22:19:28.651Z,3.70
2023-04-27T22:21:56.521Z,4.07
2023-04-27T22:24:23.766Z,4.60
2023-04-27T22:26:50.925Z,3.97
2023-04-27T22:29:18.225Z,4.38
2023-04-27T22:31:45.738Z,3.90
2023-04-27T22:34:13.446Z,4.40
2023-04-27T22:36:40.619Z,4.47
2023-04-27T22:39:08.273Z,3.80
2023-04-27T22:41:36.109Z,3.90
2023-04-27T22:44:03.060Z,4.13
2023-04-27T22:46:30.526Z,3.72
2023-04-27T22:48:58.664Z,4.85
2023-04-27T22:51:27.541Z,4.10
2023-04-27T22:53:54.793Z,5.25
2023-04-27T22:56:22.539Z,4.78
2023-04-27T22:58:49.571Z,4.35
2023-04-27T23:01:17.108Z,4.88
2023-04-27T23:03:44.221Z,4.25
2023-04-27T23:06:14.512Z,4.25
2023-04-27T23:08:43.071Z,4.75
2023-04-27T23:11:13.580Z,4.00
2023-04-27T23:13:40.474Z,4.50
2023-04-27T23:16:09.627Z,4.43
2023-04-27T23:18:36.574Z,3.90
2023-04-27T23:21:03.603Z,4.47
2023-04-27T23:23:30.933Z,3.67
2023-04-27T23:25:57.720Z,4.82
2023-04-27T23:28:24.645Z,5.07
2023-04-27T23:30:55.110Z,4.53
2023-04-27T23:33:22.207Z,4.82
2023-04-27T23:35:49.490Z,4.68
2023-04-27T23:38:16.443Z,5.30
2023-04-27T23:40:43.281Z,4.82
2023-04-27T23:43:10.606Z,5.03
2023-04-27T23:45:37.671Z,5.30
2023-04-27T23:48:05.119Z,5.25
2023-04-27T23:50:32.527Z,5.28
2023-04-27T23:53:00.034Z,4.88
2023-04-27T23:55:26.923Z,4.90
2023-04-27T23:57:53.781Z,5.28
